createdAt,value
2023-04-18T00:00:10.805Z,16.60
2023-04-18T00:02:38.916Z,15.48
2023-04-18T00:05:07.868Z,17.52
2023-04-18T00:07:35.709Z,16.23
2023-04-18T00:10:04.120Z,16.08
2023-04-18T00:12:32.058Z,16.73
2023-04-18T00:14:58.959Z,19.63
2023-04-18T00:17:28.920Z,16.15
2023-04-18T00:19:56.543Z,18.90
2023-04-18T00:22:23.618Z,16.33
2023-04-18T00:24:51.073Z,17.15
2023-04-18T00:27:21.609Z,20.23
2023-04-18T00:29:48.991Z,18.00
2023-04-18T00:32:17.074Z,16.25
2023-04-18T00:34:43.998Z,16.52
2023-04-18T00:37:10.862Z,15.65
2023-04-18T00:39:37.786Z,16.23
2023-04-18T00:42:04.753Z,16.23
2023-04-18T00:44:32.499Z,14.25
2023-04-18T00:46:59.491Z,15.93
2023-04-18T00:49:27.095Z,13.68
2023-04-18T00:51:56.043Z,15.25
2023-04-18T00:54:24.542Z,15.45
2023-04-18T00:56:51.853Z,13.93
2023-04-18T00:59:18.901Z,14.82
2023-04-18T01:01:45.981Z,15.25
2023-04-18T01:04:13.457Z,14.18
2023-04-18T01:06:41.065Z,12.93
2023-04-18T01:09:08.076Z,14.80
2023-04-18T01:11:36.145Z,14.98
2023-04-18T01:14:07.623Z,15.63
2023-04-18T01:16:34.678Z,15.35
2023-04-18T01:19:02.325Z,15.48
2023-04-18T01:21:34.035Z,16.20
2023-04-18T01:24:08.387Z,17.80
2023-04-18T01:26:35.336Z,18.27
2023-04-18T01:29:02.204Z,17.73
2023-04-18T01:31:29.268Z,19.15
2023-04-18T01:33:56.221Z,19.60
2023-04-18T01:36:23.053Z,18.33
2023-04-18T01:38:49.912Z,20.55
2023-04-18T01:41:16.774Z,18.95
2023-04-18T01:43:43.625Z,21.48
2023-04-18T01:46:10.615Z,21.42
2023-04-18T01:48:37.534Z,19.77
2023-04-18T01:51:04.676Z,19.83
2023-04-18T01:53:32.212Z,21.23
2023-04-18T01:55:59.064Z,21.27
2023-04-18T01:58:26.913Z,21.30
2023-04-18T02:00:54.873Z,21.55
2023-04-18T02:03:22.005Z,20.95
2023-04-18T02:05:49.160Z,21.38
2023-04-18T02:08:16.028Z,18.27
2023-04-18T02:10:42.989Z,20.08
2023-04-18T02:13:10.265Z,20.23
2023-04-18T02:15:37.159Z,20.25
2023-04-18T02:18:04.298Z,18.92
2023-04-18T02:20:31.909Z,20.23
2023-04-18T02:22:59.128Z,23.08
2023-04-18T02:25:27.816Z,21.25
2023-04-18T02:27:55.842Z,21.20
2023-04-18T02:30:23.346Z,19.92
2023-04-18T02:32:54.898Z,20.98
2023-04-18T02:35:21.966Z,22.02
2023-04-18T02:37:49.122Z,19.83
2023-04-18T02:40:16.034Z,19.75
2023-04-18T02:42:42.953Z,19.23
2023-04-18T02:45:10.147Z,19.55
2023-04-18T02:47:47.073Z,19.45
2023-04-18T02:52:47.882Z,21.65
2023-04-18T02:55:14.919Z,19.65
2023-04-18T02:57:41.815Z,21.27
2023-04-18T03:00:09.478Z,22.00
2023-04-18T03:02:36.374Z,22.90
2023-04-18T03:05:03.615Z,22.60
2023-04-18T03:07:31.144Z,22.02
2023-04-18T03:09:58.178Z,21.25
2023-04-18T03:12:25.073Z,23.65
2023-04-18T03:14:51.996Z,22.95
2023-04-18T03:17:18.872Z,24.42
2023-04-18T03:19:46.587Z,25.52
2023-04-18T03:22:14.430Z,24.58
2023-04-18T03:24:41.486Z,23.48
2023-04-18T03:27:08.427Z,23.92
2023-04-18T03:29:35.346Z,25.70
2023-04-18T03:32:02.254Z,26.00
2023-04-18T03:34:29.608Z,26.10
2023-04-18T03:36:56.587Z,25.20
2023-04-18T03:39:23.467Z,25.63
2023-04-18T03:41:50.356Z,26.88
2023-04-18T03:44:17.261Z,28.27
2023-04-18T03:46:44.450Z,26.33
2023-04-18T03:49:11.374Z,28.33
2023-04-18T03:51:49.438Z,29.00
2023-04-18T03:54:17.330Z,28.98
2023-04-18T03:56:44.830Z,28.92
2023-04-18T03:59:11.988Z,28.55
2023-04-18T04:01:39.002Z,29.85
2023-04-18T04:04:06.146Z,29.92
2023-04-18T04:06:33.152Z,29.55
2023-04-18T04:09:00.012Z,33.22
2023-04-18T04:11:27.431Z,32.60
2023-04-18T04:13:54.336Z,27.40
2023-04-18T04:16:21.542Z,32.35
2023-04-18T04:18:48.511Z,32.58
2023-04-18T04:21:15.914Z,31.77
2023-04-18T04:23:43.711Z,33.47
2023-04-18T04:26:10.816Z,33.70
2023-04-18T04:28:39.097Z,29.23
2023-04-18T04:31:06.992Z,29.65
2023-04-18T04:33:34.021Z,31.08
2023-04-18T04:36:01.437Z,30.98
2023-04-18T04:38:31.218Z,30.45
2023-04-18T04:40:58.634Z,30.20
2023-04-18T04:43:26.226Z,30.73
2023-04-18T04:45:54.096Z,32.65
2023-04-18T04:48:22.368Z,29.27
2023-04-18T04:50:54.355Z,30.20
2023-04-18T04:53:25.072Z,27.65
2023-04-18T04:55:57.565Z,29.10
2023-04-18T04:58:27.645Z,30.98
2023-04-18T05:00:57.552Z,30.07
2023-04-18T05:03:24.715Z,27.88
2023-04-18T05:05:51.956Z,29.80
2023-04-18T05:08:18.981Z,32.70
2023-04-18T05:10:46.208Z,26.40
2023-04-18T05:13:13.130Z,29.10
2023-04-18T05:15:40.365Z,28.70
2023-04-18T05:18:07.554Z,29.23
2023-04-18T05:20:34.814Z,28.05
2023-04-18T05:23:01.855Z,27.38
2023-04-18T05:25:30.073Z,28.98
2023-04-18T05:27:57.473Z,28.98
2023-04-18T05:30:24.525Z,28.35
2023-04-18T05:32:51.992Z,28.80
2023-04-18T05:35:19.070Z,26.00
2023-04-18T05:37:46.179Z,28.75
2023-04-18T05:40:13.709Z,31.50
2023-04-18T05:42:41.357Z,29.65
2023-04-18T05:45:08.821Z,27.25
2023-04-18T05:47:35.871Z,28.48
2023-04-18T05:50:03.201Z,28.80
2023-04-18T05:52:30.152Z,30.13
2023-04-18T05:54:57.284Z,28.67
2023-04-18T05:57:24.312Z,29.35
2023-04-18T05:59:51.440Z,29.85
2023-04-18T06:02:18.855Z,28.55
2023-04-18T06:04:46.185Z,30.95
2023-04-18T06:07:13.484Z,28.88
2023-04-18T06:09:40.612Z,28.40
2023-04-18T06:12:07.663Z,29.08
2023-04-18T06:14:34.662Z,29.85
2023-04-18T06:17:01.715Z,29.25
2023-04-18T06:19:28.830Z,27.95
2023-04-18T06:21:55.970Z,26.23
2023-04-18T06:24:23.949Z,26.27
2023-04-18T06:26:51.114Z,24.58
2023-04-18T06:29:18.392Z,26.98
2023-04-18T06:31:47.066Z,27.38
2023-04-18T06:34:14.524Z,23.88
2023-04-18T06:36:41.512Z,24.00
2023-04-18T06:39:09.092Z,24.70
2023-04-18T06:41:38.969Z,22.88
2023-04-18T06:44:06.221Z,24.73
2023-04-18T06:46:33.477Z,23.77
2023-04-18T06:49:00.785Z,26.23
2023-04-18T06:51:27.735Z,24.63
2023-04-18T06:53:55.008Z,22.85
2023-04-18T06:56:25.111Z,23.60
2023-04-18T06:58:53.200Z,23.10
2023-04-18T07:01:20.332Z,23.00
2023-04-18T07:03:48.091Z,23.20
2023-04-18T07:06:15.308Z,24.20
2023-04-18T07:08:42.442Z,22.42
2023-04-18T07:11:09.839Z,23.13
2023-04-18T07:13:36.773Z,21.55
2023-04-18T07:16:03.881Z,21.83
2023-04-18T07:18:38.133Z,21.23
2023-04-18T07:21:09.176Z,19.02
2023-04-18T07:23:36.244Z,21.63
2023-04-18T07:26:05.909Z,21.13
2023-04-18T07:28:34.488Z,22.17
2023-04-18T07:31:03.291Z,21.27
2023-04-18T07:33:33.980Z,20.10
2023-04-18T07:36:03.137Z,18.33
2023-04-18T07:38:30.091Z,19.58
2023-04-18T07:40:59.354Z,19.90
2023-04-18T07:43:27.115Z,20.85
2023-04-18T07:45:54.455Z,17.50
2023-04-18T07:48:28.007Z,18.35
2023-04-18T07:50:54.974Z,16.83
2023-04-18T07:53:22.009Z,17.85
2023-04-18T07:55:50.076Z,16.73
2023-04-18T07:58:17.511Z,17.83
2023-04-18T08:00:45.170Z,16.45
2023-04-18T08:03:13.344Z,14.27
2023-04-18T08:05:43.201Z,15.20
2023-04-18T08:08:13.238Z,15.77
2023-04-18T08:10:40.225Z,16.35
2023-04-18T08:13:07.369Z,16.38
2023-04-18T08:15:37.014Z,14.68
2023-04-18T08:18:03.983Z,16.33
2023-04-18T08:20:31.313Z,15.75
2023-04-18T08:23:07.935Z,16.65
2023-04-18T08:25:40.057Z,17.40
2023-04-18T08:28:07.128Z,16.23
2023-04-18T08:30:34.353Z,15.88
2023-04-18T08:33:01.592Z,15.57
2023-04-18T08:35:28.626Z,14.55
2023-04-18T08:37:55.512Z,12.68
2023-04-18T08:40:22.526Z,11.25
2023-04-18T08:42:49.742Z,10.43
2023-04-18T08:45:18.812Z,12.70
2023-04-18T08:47:45.806Z,13.20
2023-04-18T08:50:12.938Z,14.38
2023-04-18T08:52:45.229Z,11.82
2023-04-18T08:55:12.183Z,12.07
2023-04-18T08:57:40.041Z,10.02
2023-04-18T09:00:11.955Z,10.27
2023-04-18T09:02:43.975Z,12.10
2023-04-18T09:05:19.854Z,7.57
2023-04-18T09:07:53.122Z,9.77
2023-04-18T09:10:30.358Z,9.52
2023-04-18T09:12:58.395Z,8.80
2023-04-18T09:15:27.476Z,8.57
2023-04-18T09:18:03.250Z,8.95
2023-04-18T09:20:38.685Z,8.10
2023-04-18T09:23:11.519Z,7.85
2023-04-18T09:25:44.537Z,8.80
2023-04-18T09:28:29.416Z,11.38
2023-04-18T09:30:58.241Z,6.88
2023-04-18T09:33:32.683Z,6.00
2023-04-18T09:36:19.951Z,5.72
2023-04-18T09:38:47.792Z,7.35
2023-04-18T09:41:21.204Z,6.38
2023-04-18T09:43:48.428Z,4.70
2023-04-18T09:46:17.853Z,7.70
2023-04-18T09:48:44.954Z,6.00
2023-04-18T09:51:15.901Z,4.93
2023-04-18T09:53:48.054Z,5.45
2023-04-18T09:56:24.932Z,4.68
2023-04-18T09:58:57.173Z,5.47
2023-04-18T10:01:28.516Z,4.40
2023-04-18T10:03:57.415Z,3.50
2023-04-18T10:06:27.659Z,4.10
2023-04-18T10:08:55.701Z,4.43
2023-04-18T10:11:24.384Z,4.20
2023-04-18T10:13:56.026Z,5.65
2023-04-18T10:16:23.373Z,5.20
2023-04-18T10:18:51.348Z,6.45
2023-04-18T10:21:18.354Z,4.25
2023-04-18T10:23:49.112Z,6.55
2023-04-18T10:26:16.424Z,7.07
2023-04-18T10:28:55.078Z,8.75
2023-04-18T10:31:27.623Z,7.38
2023-04-18T10:36:28.800Z,7.05
2023-04-18T10:39:22.874Z,9.48
2023-04-18T10:41:51.102Z,9.73
2023-04-18T10:44:20.029Z,8.93
2023-04-18T10:46:52.905Z,8.88
2023-04-18T10:49:27.384Z,9.20
2023-04-18T10:52:00.318Z,9.40
2023-04-18T10:54:42.444Z,9.98
2023-04-18T10:57:10.495Z,9.43
2023-04-18T10:59:40.357Z,10.60
2023-04-18T11:02:30.897Z,9.20
2023-04-18T11:05:06.812Z,10.75
2023-04-18T11:07:39.810Z,9.32
2023-04-18T11:10:08.655Z,10.43
2023-04-18T11:12:37.165Z,12.32
2023-04-18T11:15:23.717Z,10.02
2023-04-18T11:18:04.396Z,10.30
2023-04-18T11:20:39.600Z,8.27
2023-04-18T11:23:17.175Z,9.32
2023-04-18T11:25:47.330Z,9.38
2023-04-18T11:28:20.798Z,11.48
2023-04-18T11:30:48.251Z,11.35
2023-04-18T11:33:15.357Z,9.25
2023-04-18T11:35:44.989Z,8.38
2023-04-18T11:38:14.365Z,9.35
2023-04-18T11:40:49.151Z,9.57
2023-04-18T11:43:21.606Z,10.40
2023-04-18T11:45:56.403Z,9.07
2023-04-18T11:48:24.258Z,8.50
2023-04-18T11:50:51.337Z,9.40
2023-04-18T11:53:37.753Z,9.77
2023-04-18T11:56:05.761Z,9.32
2023-04-18T11:58:34.280Z,11.35
2023-04-18T12:01:16.593Z,8.98
2023-04-18T12:03:44.880Z,8.52
2023-04-18T12:06:12.384Z,9.25
2023-04-18T12:08:43.529Z,8.13
2023-04-18T12:11:10.833Z,8.75
2023-04-18T12:13:37.888Z,8.43
2023-04-18T12:16:05.322Z,11.75
2023-04-18T12:18:32.639Z,7.97
2023-04-18T12:21:02.204Z,7.57
2023-04-18T12:23:37.312Z,7.15
2023-04-18T12:26:23.872Z,7.72
2023-04-18T12:28:51.634Z,7.97
2023-04-18T12:31:19.090Z,7.20
2023-04-18T12:33:46.072Z,8.55
2023-04-18T12:36:13.153Z,6.57
2023-04-18T12:38:40.069Z,7.15
2023-04-18T12:41:10.681Z,9.98
2023-04-18T12:43:37.727Z,6.53
2023-04-18T12:46:04.925Z,8.27
2023-04-18T12:48:31.922Z,7.90
2023-04-18T12:50:58.989Z,7.75
2023-04-18T12:53:26.304Z,6.28
2023-04-18T12:55:53.270Z,5.97
2023-04-18T12:58:20.977Z,6.90
2023-04-18T13:00:47.926Z,7.68
2023-04-18T13:03:15.020Z,5.20
2023-04-18T13:05:42.054Z,10.38
2023-04-18T13:08:17.263Z,7.13
2023-04-18T13:10:48.333Z,8.52
2023-04-18T13:13:15.314Z,6.75
2023-04-18T13:15:42.705Z,9.35
2023-04-18T13:18:09.653Z,6.65
2023-04-18T13:20:36.807Z,7.82
2023-04-18T13:23:04.018Z,5.78
2023-04-18T13:25:31.040Z,6.35
2023-04-18T13:27:58.733Z,9.75
2023-04-18T13:30:25.920Z,6.53
2023-04-18T13:32:52.911Z,7.32
2023-04-18T13:35:20.217Z,8.68
2023-04-18T13:37:47.121Z,7.60
2023-04-18T13:40:14.564Z,7.20
2023-04-18T13:42:41.507Z,7.80
2023-04-18T13:45:08.845Z,7.22
2023-04-18T13:47:36.078Z,6.80
2023-04-18T13:50:03.070Z,5.75
2023-04-18T13:52:29.956Z,6.65
2023-04-18T13:54:56.987Z,7.38
2023-04-18T13:57:23.937Z,8.68
2023-04-18T13:59:50.848Z,7.22
2023-04-18T14:02:17.859Z,7.47
2023-04-18T14:04:45.052Z,9.57
2023-04-18T14:07:11.989Z,8.90
2023-04-18T14:09:38.903Z,6.75
2023-04-18T14:12:06.182Z,7.05
2023-04-18T14:14:33.052Z,8.13
2023-04-18T14:17:00.176Z,8.85
2023-04-18T14:19:27.563Z,8.73
2023-04-18T14:21:54.717Z,8.10
2023-04-18T14:24:21.781Z,7.97
2023-04-18T14:26:48.697Z,8.52
2023-04-18T14:29:15.843Z,7.82
2023-04-18T14:31:43.025Z,8.05
2023-04-18T14:34:10.002Z,7.40
2023-04-18T14:36:37.176Z,6.20
2023-04-18T14:39:07.089Z,7.88
2023-04-18T14:41:34.056Z,9.13
2023-04-18T14:44:01.271Z,7.75
2023-04-18T14:46:28.541Z,7.72
2023-04-18T14:48:55.632Z,7.78
2023-04-18T14:51:23.473Z,6.78
2023-04-18T14:53:50.699Z,7.78
2023-04-18T14:56:21.224Z,7.28
2023-04-18T14:58:48.690Z,8.05
2023-04-18T15:01:17.652Z,9.48
2023-04-18T15:03:44.974Z,8.45
2023-04-18T15:06:12.092Z,8.32
2023-04-18T15:08:39.027Z,6.70
2023-04-18T15:11:09.659Z,6.47
2023-04-18T15:13:36.963Z,9.13
2023-04-18T15:16:04.097Z,8.10
2023-04-18T15:18:31.023Z,8.93
2023-04-18T15:21:00.098Z,9.88
2023-04-18T15:23:27.707Z,9.35
2023-04-18T15:25:54.621Z,9.02
2023-04-18T15:28:21.818Z,9.60
2023-04-18T15:30:48.674Z,10.88
2023-04-18T15:33:16.092Z,7.25
2023-04-18T15:35:42.997Z,7.25
2023-04-18T15:38:09.916Z,9.75
2023-04-18T15:40:36.843Z,9.90
2023-04-18T15:43:04.417Z,10.75
2023-04-18T15:45:31.482Z,8.85
2023-04-18T15:47:58.899Z,8.80
2023-04-18T15:50:26.390Z,8.65
2023-04-18T15:52:53.450Z,9.30
2023-04-18T15:55:20.389Z,8.40
2023-04-18T15:57:47.775Z,9.43
2023-04-18T16:00:17.811Z,8.88
2023-04-18T16:02:46.028Z,11.00
2023-04-18T16:05:13.335Z,8.35
2023-04-18T16:07:41.508Z,8.88
2023-04-18T16:10:10.908Z,9.90
2023-04-18T16:12:39.347Z,12.32
2023-04-18T16:15:08.769Z,9.48
2023-04-18T16:17:39.003Z,8.80
2023-04-18T16:20:08.334Z,9.82
2023-04-18T16:22:35.597Z,10.63
2023-04-18T16:25:02.747Z,9.77
2023-04-18T16:27:29.761Z,10.55
2023-04-18T16:29:56.917Z,9.13
2023-04-18T16:32:24.029Z,10.85
2023-04-18T16:34:51.047Z,10.20
2023-04-18T16:37:17.960Z,11.07
2023-04-18T16:39:44.887Z,11.05
2023-04-18T16:42:14.058Z,10.98
2023-04-18T16:44:42.311Z,12.32
2023-04-18T16:47:09.480Z,11.82
2023-04-18T16:49:40.451Z,14.40
2023-04-18T16:52:07.466Z,12.70
2023-04-18T16:54:34.440Z,12.48
2023-04-18T16:57:01.928Z,13.02
2023-04-18T16:59:29.103Z,14.45
2023-04-18T17:01:56.211Z,13.13
2023-04-18T17:04:23.582Z,11.45
2023-04-18T17:06:52.054Z,13.07
2023-04-18T17:09:19.913Z,12.05
2023-04-18T17:11:47.217Z,12.35
2023-04-18T17:14:15.033Z,10.60
2023-04-18T17:16:42.782Z,11.10
2023-04-18T17:19:10.651Z,13.15
2023-04-18T17:21:38.340Z,13.35
2023-04-18T17:24:07.142Z,13.05
2023-04-18T17:26:35.189Z,12.60
2023-04-18T17:29:04.851Z,15.98
2023-04-18T17:31:32.474Z,14.82
2023-04-18T17:34:00.179Z,11.55
2023-04-18T17:36:27.496Z,13.27
2023-04-18T17:38:54.521Z,12.15
2023-04-18T17:41:22.187Z,13.43
2023-04-18T17:43:51.243Z,13.07
2023-04-18T17:46:18.374Z,12.40
2023-04-18T17:48:45.571Z,11.07
2023-04-18T17:51:12.586Z,12.10
2023-04-18T17:53:39.526Z,15.60
2023-04-18T17:56:06.587Z,13.88
2023-04-18T17:58:33.615Z,11.18
2023-04-18T18:01:00.705Z,11.85
2023-04-18T18:03:27.998Z,11.63
2023-04-18T18:05:55.221Z,12.25
2023-04-18T18:08:22.865Z,12.23
2023-04-18T18:10:50.084Z,11.65
2023-04-18T18:13:17.087Z,13.60
2023-04-18T18:15:44.164Z,14.88
2023-04-18T18:18:11.263Z,11.30
2023-04-18T18:20:38.243Z,12.38
2023-04-18T18:23:05.201Z,16.92
2023-04-18T18:25:32.391Z,13.80
2023-04-18T18:27:59.395Z,12.65
2023-04-18T18:30:27.922Z,13.35
2023-04-18T18:32:56.838Z,13.02
2023-04-18T18:35:23.925Z,13.43
2023-04-18T18:37:50.906Z,12.93
2023-04-18T18:40:17.888Z,14.40
2023-04-18T18:42:46.944Z,14.13
2023-04-18T18:45:13.998Z,15.38
2023-04-18T18:47:41.307Z,16.35
2023-04-18T18:50:08.797Z,13.23
2023-04-18T18:52:37.887Z,14.55
2023-04-18T18:55:05.365Z,12.02
2023-04-18T18:57:32.415Z,13.35
2023-04-18T18:59:59.396Z,11.88
2023-04-18T19:02:26.535Z,12.80
2023-04-18T19:04:53.679Z,13.73
2023-04-18T19:07:20.786Z,13.63
2023-04-18T19:09:47.823Z,13.15
2023-04-18T19:12:14.702Z,11.68
2023-04-18T19:14:42.551Z,12.82
2023-04-18T19:17:16.837Z,16.17
2023-04-18T19:19:45.770Z,13.75
2023-04-18T19:22:12.673Z,11.82
2023-04-18T19:24:39.581Z,10.50
2023-04-18T19:27:09.023Z,15.95
2023-04-18T19:29:36.438Z,14.48
2023-04-18T19:32:03.598Z,13.05
2023-04-18T19:34:30.697Z,13.20
2023-04-18T19:36:57.888Z,15.40
2023-04-18T19:39:24.796Z,14.80
2023-04-18T19:41:54.843Z,13.63
2023-04-18T19:44:21.949Z,12.73
2023-04-18T19:46:49.024Z,13.60
2023-04-18T19:49:24.876Z,13.93
2023-04-18T19:51:54.676Z,13.73
2023-04-18T19:54:24.663Z,13.02
2023-04-18T19:56:54.752Z,13.48
2023-04-18T19:59:24.201Z,13.05
2023-04-18T20:01:54.184Z,13.20
2023-04-18T20:04:26.015Z,12.32
2023-04-18T20:06:56.394Z,11.45
2023-04-18T20:09:26.365Z,13.25
2023-04-18T20:11:54.898Z,14.32
2023-04-18T20:14:26.219Z,11.60
2023-04-18T20:16:53.441Z,14.10
2023-04-18T20:19:28.336Z,10.77
2023-04-18T20:21:55.463Z,11.95
2023-04-18T20:24:28.169Z,11.43
2023-04-18T20:26:59.951Z,12.07
2023-04-18T20:29:29.782Z,10.85
2023-04-18T20:31:56.673Z,11.48
2023-04-18T20:34:26.711Z,13.32
2023-04-18T20:36:53.935Z,13.05
2023-04-18T20:39:21.208Z,11.35
2023-04-18T20:41:56.008Z,12.75
2023-04-18T20:44:29.485Z,11.35
2023-04-18T20:47:03.795Z,11.05
2023-04-18T20:49:34.547Z,10.82
2023-04-18T20:52:01.456Z,13.80
2023-04-18T20:54:28.566Z,13.52
2023-04-18T20:56:55.840Z,10.45
2023-04-18T20:59:22.785Z,10.57
2023-04-18T21:01:52.893Z,11.77
2023-04-18T21:04:25.038Z,10.70
2023-04-18T21:06:52.113Z,11.27
2023-04-18T21:09:19.039Z,10.07
2023-04-18T21:11:46.178Z,12.93
2023-04-18T21:14:13.244Z,11.02
2023-04-18T21:16:40.483Z,11.23
2023-04-18T21:19:10.788Z,9.45
2023-04-18T21:21:40.719Z,10.82
2023-04-18T21:24:11.193Z,12.63
2023-04-18T21:26:38.112Z,9.80
2023-04-18T21:29:05.230Z,12.93
2023-04-18T21:31:34.922Z,10.63
2023-04-18T21:34:07.267Z,10.75
2023-04-18T21:36:40.203Z,11.20
2023-04-18T21:39:08.472Z,11.25
2023-04-18T21:41:37.828Z,9.90
2023-04-18T21:44:04.992Z,10.82
2023-04-18T21:46:32.022Z,10.65
2023-04-18T21:48:59.012Z,11.10
2023-04-18T21:51:27.383Z,12.27
2023-04-18T21:53:55.057Z,10.15
2023-04-18T21:56:21.957Z,10.52
2023-04-18T21:58:52.174Z,12.18
2023-04-18T22:01:19.103Z,10.93
2023-04-18T22:03:49.557Z,13.85
2023-04-18T22:06:20.887Z,11.18
2023-04-18T22:08:48.370Z,11.68
2023-04-18T22:11:15.938Z,12.77
2023-04-18T22:13:50.223Z,11.68
2023-04-18T22:16:17.708Z,10.65
2023-04-18T22:18:49.100Z,11.88
2023-04-18T22:21:19.199Z,12.30
2023-04-18T22:23:49.293Z,11.90
2023-04-18T22:26:19.504Z,9.82
2023-04-18T22:28:49.562Z,13.10
2023-04-18T22:31:16.469Z,13.60
2023-04-18T22:33:47.756Z,12.98
2023-04-18T22:36:18.161Z,13.05
2023-04-18T22:38:45.866Z,11.57
2023-04-18T22:41:13.627Z,10.10
2023-04-18T22:43:40.656Z,11.40
2023-04-18T22:46:08.125Z,11.20
2023-04-18T22:48:35.367Z,12.93
2023-04-18T22:51:02.959Z,10.45
2023-04-18T22:53:30.179Z,12.20
2023-04-18T22:55:57.051Z,11.27
2023-04-18T22:58:24.716Z,14.18
2023-04-18T23:00:51.741Z,12.82
2023-04-18T23:03:18.792Z,11.55
2023-04-18T23:05:46.544Z,12.65
2023-04-18T23:08:13.488Z,11.73
2023-04-18T23:10:40.534Z,12.43
2023-04-18T23:13:07.719Z,13.65
2023-04-18T23:15:35.797Z,11.68
2023-04-18T23:18:02.895Z,14.30
2023-04-18T23:20:29.966Z,11.90
2023-04-18T23:22:56.903Z,13.27
2023-04-18T23:25:23.922Z,12.75
2023-04-18T23:27:51.032Z,11.48
2023-04-18T23:30:18.018Z,14.45
2023-04-18T23:32:45.355Z,13.45
2023-04-18T23:35:12.462Z,15.63
2023-04-18T23:37:39.566Z,15.32
2023-04-18T23:40:08.062Z,13.73
2023-04-18T23:42:35.489Z,16.08
2023-04-18T23:45:04.236Z,15.60
2023-04-18T23:47:31.288Z,18.17
2023-04-18T23:49:58.335Z,14.65
2023-04-18T23:52:25.988Z,15.95
2023-04-18T23:54:52.921Z,17.35
2023-04-18T23:57:19.767Z,17.67
2023-04-18T23:59:46.696Z,16.60
